Time;durP1;ratioP1;P1;durP2;ratioP2;P2;SDS_P1;SDS_P2;PMS_P1;PMS_P2;Temp;Humidity;BMP_temperature;BMP_pressure;BME280_temperature;BME280_humidity;BME280_pressure;Samples;Min_cycle;Max_cycle;Signal;HPM_P1;HPM_P2
2024/03/10 00:00:41;;;;;;;21.27;11.63;;;;;;;8.20;75.09;99457.63;4964080;28;20762;-68
2024/03/10 00:03:09;;;;;;;22.38;11.27;;;;;;;8.15;75.65;99450.38;4965593;28;20037;-67
2024/03/10 00:05:36;;;;;;;21.45;11.68;;;;;;;8.10;76.00;99444.97;4962232;28;20181;-67
2024/03/10 00:08:01;;;;;;;21.48;11.75;;;;;;;8.05;76.32;99452.41;4946461;28;20045;-68
2024/03/10 00:10:28;;;;;;;22.77;11.70;;;;;;;7.96;76.88;99448.28;4947739;28;20034;-67
2024/03/10 00:12:54;;;;;;;23.98;11.85;;;;;;;7.85;77.31;99446.09;4963714;28;20466;-68
2024/03/10 00:15:19;;;;;;;26.17;11.73;;;;;;;7.80;77.89;99452.56;4950269;28;20114;-68
2024/03/10 00:17:45;;;;;;;23.70;11.90;;;;;;;7.78;78.49;99454.50;4958251;28;20481;-68
2024/03/10 00:20:11;;;;;;;20.70;11.40;;;;;;;7.75;78.65;99464.38;4965211;28;20053;-68
2024/03/10 00:22:38;;;;;;;23.00;12.32;;;;;;;7.73;78.97;99461.16;4966470;28;20647;-68
2024/03/10 00:25:08;;;;;;;26.40;12.02;;;;;;;7.71;79.19;99461.31;4961763;28;20486;-68
2024/03/10 00:27:36;;;;;;;21.27;11.38;;;;;;;7.69;79.38;99457.31;4946685;28;20509;-68
2024/03/10 00:30:05;;;;;;;25.88;11.65;;;;;;;7.67;79.51;99461.84;4944506;28;20045;-68
2024/03/10 00:32:31;;;;;;;21.08;12.07;;;;;;;7.65;79.70;99458.59;4969055;28;20027;-68
2024/03/10 00:34:57;;;;;;;26.58;13.05;;;;;;;7.59;79.78;99458.34;4969477;28;20157;-68
2024/03/10 00:37:22;;;;;;;22.85;11.43;;;;;;;7.54;79.41;99446.91;4951942;28;20033;-68
2024/03/10 00:39:48;;;;;;;22.20;12.63;;;;;;;7.36;80.48;99440.19;4970899;28;20505;-68
2024/03/10 00:42:13;;;;;;;24.10;12.57;;;;;;;7.28;81.00;99439.44;4968715;28;20045;-67
2024/03/10 00:44:39;;;;;;;25.95;13.18;;;;;;;7.20;81.88;99435.94;4966744;28;20044;-68
2024/03/10 00:47:04;;;;;;;24.88;13.60;;;;;;;7.03;83.32;99436.97;4970366;28;21017;-68
2024/03/10 00:49:30;;;;;;;27.48;12.90;;;;;;;6.98;83.53;99428.91;4971454;28;20042;-68
2024/03/10 00:51:55;;;;;;;24.40;12.88;;;;;;;6.89;84.71;99424.75;4973287;28;20027;-68
2024/03/10 00:54:21;;;;;;;26.17;13.55;;;;;;;6.93;84.93;99426.03;4974045;28;20035;-68
2024/03/10 00:56:47;;;;;;;29.02;14.38;;;;;;;6.95;83.75;99424.91;4964144;28;21258;-68
2024/03/10 00:59:13;;;;;;;27.95;14.30;;;;;;;7.04;83.20;99428.25;4971258;28;20488;-68
2024/03/10 01:01:39;;;;;;;28.65;14.10;;;;;;;7.04;83.02;99422.28;4969106;28;20022;-68
2024/03/10 01:04:05;;;;;;;27.40;13.48;;;;;;;7.02;83.33;99417.28;4971064;28;20057;-68
2024/03/10 01:06:31;;;;;;;26.80;13.18;;;;;;;6.99;83.18;99415.06;4973323;28;20125;-68
2024/03/10 01:08:57;;;;;;;26.25;13.30;;;;;;;7.11;82.25;99424.03;4952359;28;20516;-68
2024/03/10 01:11:23;;;;;;;26.58;13.70;;;;;;;7.12;81.88;99414.53;4969795;28;20385;-68
2024/03/10 01:13:50;;;;;;;23.65;12.63;;;;;;;7.12;82.12;99417.09;4949121;28;20122;-70
2024/03/10 01:16:16;;;;;;;27.55;14.52;;;;;;;7.25;81.20;99409.63;4972620;28;20034;-67
2024/03/10 01:18:42;;;;;;;24.60;12.90;;;;;;;7.19;80.97;99410.31;4971684;28;20403;-68
2024/03/10 01:21:08;;;;;;;28.52;13.65;;;;;;;7.19;80.78;99407.72;4970788;28;20035;-68
2024/03/10 01:23:33;;;;;;;27.25;12.75;;;;;;;7.19;80.75;99410.31;4968686;28;20065;-68
2024/03/10 01:26:00;;;;;;;28.73;13.65;;;;;;;7.18;80.30;99408.72;4951602;28;20085;-68
2024/03/10 01:28:26;;;;;;;28.27;13.18;;;;;;;7.18;80.03;99403.56;4952272;28;20042;-67
2024/03/10 01:30:52;;;;;;;26.88;13.20;;;;;;;7.20;80.59;99388.72;4955797;28;20105;-68
2024/03/10 01:33:17;;;;;;;29.25;13.38;;;;;;;7.13;81.14;99398.09;4971168;28;20454;-68
2024/03/10 01:35:43;;;;;;;22.73;12.02;;;;;;;7.07;82.05;99391.84;4949202;28;20133;-68
2024/03/10 01:38:09;;;;;;;22.00;11.07;;;;;;;7.07;81.78;99393.63;4969137;28;20481;-68
2024/03/10 01:40:35;;;;;;;23.77;11.95;;;;;;;7.06;81.63;99387.63;4948706;28;20655;-68
2024/03/10 01:43:00;;;;;;;25.92;12.20;;;;;;;7.05;82.10;99388.63;4973087;28;20035;-68
2024/03/10 01:45:26;;;;;;;25.85;12.40;;;;;;;7.04;81.43;99381.06;4948791;28;20517;-67
2024/03/10 01:47:51;;;;;;;24.65;13.45;;;;;;;7.03;81.25;99385.41;4968909;28;20035;-68
2024/03/10 01:50:17;;;;;;;24.70;11.82;;;;;;;7.05;81.06;99383.47;4951977;28;20473;-67
2024/03/10 01:52:47;;;;;;;28.33;14.13;;;;;;;7.00;80.56;99380.56;4969949;28;20033;-68
2024/03/10 01:55:14;;;;;;;25.02;12.25;;;;;;;7.00;80.86;99378.00;4947038;28;20374;-68
2024/03/10 01:57:40;;;;;;;25.33;12.45;;;;;;;6.97;81.23;99378.34;4967281;28;20301;-68
2024/03/10 02:00:06;;;;;;;28.02;12.65;;;;;;;7.02;80.52;99370.91;4965505;28;20172;-68
2024/03/10 02:02:37;;;;;;;24.65;12.43;;;;;;;6.95;80.86;99365.63;4967460;28;20501;-68
2024/03/10 02:05:04;;;;;;;26.77;13.45;;;;;;;6.99;81.09;99371.25;4938675;28;20034;-68
2024/03/10 02:07:30;;;;;;;23.80;12.98;;;;;;;6.98;81.27;99367.06;4967348;28;20041;-68
2024/03/10 02:09:56;;;;;;;26.63;13.35;;;;;;;6.91;82.09;99368.69;4968182;28;20038;-68
2024/03/10 02:12:23;;;;;;;27.35;13.88;;;;;;;6.88;82.42;99363.88;4964342;28;20134;-68
2024/03/10 02:15:01;;;;;;;26.27;13.18;;;;;;;6.79;82.86;99353.59;4951665;28;20046;-68
2024/03/10 02:17:28;;;;;;;31.75;14.02;;;;;;;6.78;83.48;99358.91;4964500;28;20039;-68
2024/03/10 02:19:57;;;;;;;27.98;13.68;;;;;;;6.81;83.54;99356.81;4965350;28;20043;-68
2024/03/10 02:22:24;;;;;;;26.63;13.45;;;;;;;6.75;83.88;99351.53;4967481;28;20034;-67
2024/03/10 02:24:53;;;;;;;23.08;12.80;;;;;;;6.70;84.22;99346.06;4961010;28;20053;-68
2024/03/10 02:27:21;;;;;;;26.13;14.15;;;;;;;6.65;84.72;99346.56;4965635;28;20077;-68
2024/03/10 02:49:15;;;;;;;33.22;14.10;;;;;;;6.43;86.74;99319.75;4969744;28;20052;-68
2024/03/10 02:51:41;;;;;;;30.80;14.05;;;;;;;6.41;86.96;99322.47;4965826;28;20034;-67
2024/03/10 02:54:07;;;;;;;28.73;14.57;;;;;;;6.42;87.36;99326.66;4968686;28;20042;-68
2024/03/10 02:56:32;;;;;;;28.33;14.43;;;;;;;6.40;86.93;99318.31;4957143;28;20110;-67
2024/03/10 02:58:58;;;;;;;28.95;14.07;;;;;;;6.35;87.52;99322.34;4964191;28;20032;-68
2024/03/10 03:01:24;;;;;;;30.15;13.68;;;;;;;6.32;87.91;99320.09;4967924;28;20030;-68
2024/03/10 03:03:51;;;;;;;26.05;14.77;;;;;;;6.28;88.09;99306.75;4965403;28;20047;-69
2024/03/10 03:06:17;;;;;;;32.60;14.88;;;;;;;6.26;88.62;99305.31;4957990;28;20038;-68
2024/03/10 03:08:43;;;;;;;29.83;14.07;;;;;;;6.26;88.97;99307.88;4957335;28;20532;-69
2024/03/10 03:11:09;;;;;;;30.45;14.98;;;;;;;6.24;88.74;99298.53;4976213;28;20035;-68
2024/03/10 03:13:36;;;;;;;25.88;13.65;;;;;;;6.22;88.95;99300.47;4974037;28;20046;-68
2024/03/10 03:16:02;;;;;;;31.05;14.15;;;;;;;6.21;89.05;99292.91;4973001;28;20038;-68
2024/03/10 03:18:29;;;;;;;28.42;14.88;;;;;;;6.20;89.42;99288.75;4967399;28;20034;-68
2024/03/10 03:20:55;;;;;;;29.80;13.82;;;;;;;6.22;89.01;99294.53;4965831;28;20042;-68
2024/03/10 03:23:21;;;;;;;28.08;14.68;;;;;;;6.20;89.29;99286.97;4951560;28;20038;-67
2024/03/10 03:25:48;;;;;;;28.30;13.73;;;;;;;6.20;89.07;99293.91;4936199;28;20053;-68
2024/03/10 03:28:15;;;;;;;28.02;13.57;;;;;;;6.19;89.60;99300.00;4966083;28;20066;-68
2024/03/10 03:30:42;;;;;;;29.25;14.40;;;;;;;6.23;89.40;99284.06;4961092;28;20050;-68
2024/03/10 03:33:09;;;;;;;25.65;13.75;;;;;;;6.20;89.33;99281.81;4947838;28;20618;-68
2024/03/10 03:35:37;;;;;;;30.20;13.80;;;;;;;6.16;89.61;99285.69;4965107;28;20540;-68
2024/03/10 03:38:03;;;;;;;28.65;14.35;;;;;;;6.14;89.76;99285.06;4968286;28;20038;-68
2024/03/10 03:40:29;;;;;;;31.15;15.45;;;;;;;6.09;90.29;99277.03;4964793;28;20514;-68
2024/03/10 03:42:55;;;;;;;24.92;13.93;;;;;;;6.08;90.36;99277.97;4972545;28;20100;-68
2024/03/10 03:45:22;;;;;;;27.70;14.65;;;;;;;6.07;90.30;99273.00;4968275;28;20047;-67
2024/03/10 03:47:48;;;;;;;29.83;14.43;;;;;;;6.06;90.77;99272.19;4949760;28;20122;-68
2024/03/10 03:50:15;;;;;;;25.02;12.90;;;;;;;6.03;90.73;99260.47;4966015;28;20049;-68
2024/03/10 03:52:41;;;;;;;30.90;13.93;;;;;;;6.03;90.98;99265.59;4949437;28;20030;-68
2024/03/10 03:55:06;;;;;;;25.77;14.18;;;;;;;5.99;91.12;99258.38;4963765;28;20121;-68
2024/03/10 03:57:33;;;;;;;27.60;14.10;;;;;;;5.96;90.97;99256.94;4968550;28;20041;-68
2024/03/10 03:59:59;;;;;;;29.25;14.82;;;;;;;5.92;91.38;99253.06;4960464;28;20454;-68
2024/03/10 04:02:25;;;;;;;29.83;14.82;;;;;;;5.93;91.50;99251.28;4966386;28;20817;-68
2024/03/10 04:04:52;;;;;;;27.40;14.10;;;;;;;5.93;91.32;99256.41;4965900;28;20504;-67
2024/03/10 04:07:18;;;;;;;31.60;13.88;;;;;;;5.90;91.46;99255.00;4968650;28;20532;-68
2024/03/10 04:09:43;;;;;;;28.60;14.73;;;;;;;5.92;91.05;99267.69;4950581;28;20039;-68
2024/03/10 04:12:09;;;;;;;30.92;14.23;;;;;;;5.88;91.01;99262.06;4945697;28;20502;-68
2024/03/10 04:14:34;;;;;;;25.08;14.18;;;;;;;5.87;90.84;99263.03;4949629;28;20102;-68
2024/03/10 04:17:00;;;;;;;33.90;14.68;;;;;;;5.93;90.80;99256.41;4948216;28;21514;-68
2024/03/10 04:19:25;;;;;;;30.70;15.48;;;;;;;5.85;91.22;99257.25;4966806;28;20560;-68
2024/03/10 04:21:50;;;;;;;32.15;15.05;;;;;;;5.81;91.13;99258.53;4952729;28;20042;-68
2024/03/10 04:24:16;;;;;;;32.40;13.90;;;;;;;5.82;91.46;99252.41;4968074;28;20061;-68
2024/03/10 04:26:42;;;;;;;31.83;15.40;;;;;;;5.82;91.11;99252.41;4964119;28;20035;-68
2024/03/10 04:29:09;;;;;;;27.52;14.32;;;;;;;5.83;91.11;99249.69;4963220;28;20524;-68
2024/03/10 04:31:35;;;;;;;29.13;13.88;;;;;;;5.80;91.53;99246.63;4967070;28;20041;-68
2024/03/10 04:34:00;;;;;;;28.08;12.57;;;;;;;5.76;91.58;99253.84;4965329;28;20031;-68
2024/03/10 04:36:28;;;;;;;23.20;12.88;;;;;;;5.75;91.89;99246.34;4967921;28;20027;-68
2024/03/10 04:38:55;;;;;;;33.78;14.27;;;;;;;5.76;92.02;99251.28;4969659;28;20031;-68
2024/03/10 04:41:21;;;;;;;34.22;13.75;;;;;;;5.81;91.83;99255.97;4963958;28;20564;-68
2024/03/10 04:43:46;;;;;;;26.73;13.23;;;;;;;5.84;91.20;99250.50;4969378;28;20030;-68
2024/03/10 04:46:12;;;;;;;27.75;13.73;;;;;;;5.80;91.36;99238.91;4965296;28;20046;-68
2024/03/10 04:48:37;;;;;;;29.55;13.85;;;;;;;5.79;91.20;99261.25;4970067;28;20031;-68
2024/03/10 04:51:03;;;;;;;35.03;16.33;;;;;;;5.76;91.58;99264.16;4963154;28;21056;-68
2024/03/10 04:53:29;;;;;;;26.75;13.98;;;;;;;5.74;91.82;99260.16;4947721;28;20049;-68
2024/03/10 04:55:54;;;;;;;27.13;13.25;;;;;;;5.70;92.50;99261.44;4964719;28;20034;-68
2024/03/10 04:58:22;;;;;;;30.65;14.80;;;;;;;5.71;92.32;99257.88;4964568;28;20039;-68
2024/03/10 05:00:47;;;;;;;29.00;12.88;;;;;;;5.70;92.60;99248.56;4945225;28;20493;-68
2024/03/10 05:03:13;;;;;;;31.23;13.48;;;;;;;5.70;92.64;99251.16;4963709;28;20046;-68
2024/03/10 05:05:39;;;;;;;31.45;14.77;;;;;;;5.69;93.40;99246.97;4966500;28;20529;-68
2024/03/10 05:08:05;;;;;;;30.50;13.82;;;;;;;5.73;93.44;99240.56;4965097;28;20493;-68
2024/03/10 05:10:30;;;;;;;30.73;14.55;;;;;;;5.72;93.31;99244.88;4948783;28;20034;-68
2024/03/10 05:12:56;;;;;;;27.65;14.23;;;;;;;5.70;93.33;99240.84;4964818;28;20087;-68
2024/03/10 05:15:22;;;;;;;30.05;13.30;;;;;;;5.69;93.37;99240.06;4967504;28;20031;-68
2024/03/10 05:17:47;;;;;;;28.98;13.98;;;;;;;5.74;93.23;99226.69;4970834;28;20038;-68
2024/03/10 05:20:15;;;;;;;28.40;14.13;;;;;;;5.71;93.27;99219.31;4966603;28;20050;-68
2024/03/10 05:22:40;;;;;;;30.48;14.23;;;;;;;5.70;93.76;99220.28;4971615;28;20101;-68
2024/03/10 05:25:09;;;;;;;32.22;14.32;;;;;;;5.70;94.02;99217.72;4970815;28;20042;-68
2024/03/10 05:27:37;;;;;;;29.55;15.07;;;;;;;5.70;93.87;99210.00;4953687;28;20092;-68
2024/03/10 05:30:03;;;;;;;28.30;14.85;;;;;;;5.69;93.61;99206.63;4952323;28;20043;-68
2024/03/10 05:32:29;;;;;;;29.83;14.65;;;;;;;5.67;93.76;99213.72;4956089;28;20031;-68
2024/03/10 05:34:56;;;;;;;29.17;15.05;;;;;;;5.66;93.86;99205.16;4966070;28;20075;-68
2024/03/10 05:37:25;;;;;;;26.27;13.80;;;;;;;5.68;94.15;99209.34;4947702;28;20168;-68
2024/03/10 05:39:51;;;;;;;31.88;15.32;;;;;;;5.79;92.01;99227.81;4968106;28;20042;-68
2024/03/10 05:42:16;;;;;;;26.60;14.02;;;;;;;5.77;92.40;99231.53;4937005;28;20035;-68
2024/03/10 05:44:42;;;;;;;28.02;15.45;;;;;;;5.81;91.73;99232.81;4969154;28;20038;-68
2024/03/10 05:47:07;;;;;;;28.65;15.63;;;;;;;5.83;91.60;99226.53;4956293;28;20045;-68
2024/03/10 05:49:33;;;;;;;30.35;14.90;;;;;;;5.83;91.02;99233.44;4953088;28;20058;-68
2024/03/10 05:51:58;;;;;;;33.70;15.73;;;;;;;5.82;91.40;99232.66;4953383;28;20125;-67
2024/03/10 05:54:24;;;;;;;30.88;15.30;;;;;;;5.85;90.90;99237.44;4952827;28;20042;-68
2024/03/10 05:56:50;;;;;;;35.15;15.68;;;;;;;5.80;91.52;99239.72;4971426;28;20694;-68
2024/03/10 05:59:16;;;;;;;31.15;15.77;;;;;;;5.75;91.78;99239.41;4970239;28;20038;-68
2024/03/10 06:01:41;;;;;;;28.55;14.90;;;;;;;5.71;92.83;99233.00;4972408;28;20038;-68
2024/03/10 06:04:07;;;;;;;29.20;14.95;;;;;;;5.70;92.85;99238.28;4968646;28;20042;-68
2024/03/10 06:06:33;;;;;;;29.90;14.80;;;;;;;5.65;93.54;99237.00;4933182;28;20027;-68
2024/03/10 06:08:59;;;;;;;30.42;15.52;;;;;;;5.66;93.29;99237.81;4951454;28;20047;-68
2024/03/10 06:11:25;;;;;;;30.15;14.88;;;;;;;5.70;92.76;99248.56;4974385;28;20038;-68
2024/03/10 06:13:51;;;;;;;30.27;15.15;;;;;;;5.66;93.04;99238.59;4949780;28;20517;-68
2024/03/10 06:16:16;;;;;;;29.67;14.73;;;;;;;5.72;93.13;99242.28;4968576;28;20050;-68
2024/03/10 06:26:57;;;;;;;28.27;13.73;;;;;;;5.90;90.16;99246.47;4955850;28;20043;-68
2024/03/10 06:29:24;;;;;;;30.10;14.35;;;;;;;5.86;90.28;99243.44;4951406;28;20085;-68
2024/03/10 06:31:51;;;;;;;29.35;13.95;;;;;;;5.92;90.40;99242.75;4966530;28;20035;-68
2024/03/10 06:34:17;;;;;;;29.55;13.88;;;;;;;5.96;89.58;99246.63;4965857;28;20412;-68
2024/03/10 06:36:43;;;;;;;25.50;13.48;;;;;;;5.99;89.23;99254.03;4952241;28;20035;-68
2024/03/10 06:39:10;;;;;;;28.70;14.38;;;;;;;5.97;88.89;99250.00;4966416;28;20545;-68
2024/03/10 06:41:35;;;;;;;24.88;13.55;;;;;;;5.92;89.71;99253.06;4967265;28;20031;-68
2024/03/10 06:44:02;;;;;;;25.25;13.38;;;;;;;5.87;90.29;99250.16;4966163;28;20045;-68
2024/03/10 06:46:27;;;;;;;26.45;13.05;;;;;;;5.97;89.77;99255.97;4966859;28;20035;-68
2024/03/10 06:48:53;;;;;;;28.65;14.68;;;;;;;6.07;88.67;99255.00;4963507;28;20034;-68
2024/03/10 06:51:19;;;;;;;26.30;12.93;;;;;;;6.01;89.18;99251.31;4973002;28;20497;-68
2024/03/10 06:53:45;;;;;;;26.23;13.40;;;;;;;6.01;89.68;99246.97;4967778;28;20092;-68
2024/03/10 06:56:11;;;;;;;24.70;12.63;;;;;;;6.06;88.75;99256.75;4954091;28;20035;-68
2024/03/10 06:58:37;;;;;;;29.80;13.48;;;;;;;6.13;87.85;99256.91;4952733;28;20101;-68
2024/03/10 07:01:03;;;;;;;25.65;13.85;;;;;;;6.07;88.68;99260.16;4952411;28;20035;-68
2024/03/10 07:03:28;;;;;;;25.90;13.50;;;;;;;6.14;88.38;99255.94;4951796;28;20034;-68
2024/03/10 07:06:00;;;;;;;25.63;13.82;;;;;;;6.17;88.72;99258.19;4965838;28;20035;-68
2024/03/10 07:08:30;;;;;;;27.48;13.27;;;;;;;6.26;88.89;99257.19;4967803;28;20031;-68
2024/03/10 07:10:56;;;;;;;28.15;13.68;;;;;;;6.38;87.35;99263.56;4962982;28;20034;-68
2024/03/10 07:13:21;;;;;;;28.50;13.27;;;;;;;6.40;87.25;99263.41;4967980;28;20088;-68
2024/03/10 07:15:47;;;;;;;25.88;13.15;;;;;;;6.39;87.67;99264.41;4967187;28;20039;-68
2024/03/10 07:18:14;;;;;;;29.23;13.90;;;;;;;6.41;86.59;99272.75;4966136;28;20031;-68
2024/03/10 07:20:40;;;;;;;25.98;13.15;;;;;;;6.48;87.00;99265.97;4964465;28;20512;-68
2024/03/10 07:23:05;;;;;;;26.35;13.80;;;;;;;6.55;87.08;99263.53;4964859;28;20023;-68
2024/03/10 07:25:31;;;;;;;24.75;13.18;;;;;;;6.51;87.79;99267.41;4962706;28;20055;-68
2024/03/10 07:27:57;;;;;;;28.02;13.48;;;;;;;6.49;87.81;99272.72;4947841;28;20049;-68
2024/03/10 07:30:22;;;;;;;29.10;13.38;;;;;;;6.52;87.13;99276.75;4949411;28;20061;-68
2024/03/10 07:32:48;;;;;;;26.88;13.15;;;;;;;6.63;85.88;99273.81;4967666;28;20027;-68
2024/03/10 07:35:13;;;;;;;24.08;13.10;;;;;;;6.61;86.63;99268.81;4965798;28;20118;-68
2024/03/10 07:37:41;;;;;;;157.57;59.47;;;;;;;6.78;85.33;99276.47;4966175;28;20039;-68
2024/03/10 07:40:15;;;;;;;33.78;16.63;;;;;;;6.69;86.27;99275.72;4965175;28;20524;-68
2024/03/10 07:42:44;;;;;;;30.45;13.68;;;;;;;6.75;86.61;99276.81;4936882;28;20117;-68
2024/03/10 07:45:10;;;;;;;25.15;14.07;;;;;;;6.76;87.23;99268.94;4952945;28;20043;-68
2024/03/10 07:47:44;;;;;;;24.73;12.95;;;;;;;6.79;86.28;99268.56;4967971;28;20553;-68
2024/03/10 07:50:11;;;;;;;26.77;13.60;;;;;;;6.87;84.10;99279.81;4962180;28;20426;-68
2024/03/10 07:52:39;;;;;;;23.98;12.50;;;;;;;6.97;82.97;99276.06;4966668;28;20031;-68
2024/03/10 07:55:06;;;;;;;25.60;13.13;;;;;;;6.98;84.18;99284.59;4966992;28;20062;-68
2024/03/10 07:57:34;;;;;;;26.88;13.52;;;;;;;7.14;83.30;99274.19;4968037;28;20749;-68
2024/03/10 08:00:01;;;;;;;25.65;13.05;;;;;;;7.80;80.56;99271.91;4968593;28;20501;-68
2024/03/10 08:02:27;;;;;;;22.33;11.95;;;;;;;8.29;76.61;99275.81;4968908;28;20045;-68
2024/03/10 08:04:53;;;;;;;24.38;12.98;;;;;;;8.46;75.94;99276.47;4969885;28;20049;-67
2024/03/10 08:07:18;;;;;;;25.17;13.07;;;;;;;8.30;75.53;99274.03;4975669;28;20474;-68
2024/03/10 08:09:44;;;;;;;22.80;12.20;;;;;;;7.93;75.39;99271.34;4959659;28;20051;-67
2024/03/10 08:12:10;;;;;;;23.60;13.20;;;;;;;7.70;77.33;99275.72;4963092;28;20065;-68
2024/03/10 08:14:38;;;;;;;24.25;11.57;;;;;;;7.65;77.34;99280.59;4972016;28;20031;-67
2024/03/10 08:17:06;;;;;;;25.38;12.45;;;;;;;7.60;78.19;99275.97;4971433;28;20042;-68
2024/03/10 08:19:32;;;;;;;26.58;13.05;;;;;;;7.81;76.56;99285.63;4956708;28;20125;-68
2024/03/10 08:21:58;;;;;;;26.25;12.55;;;;;;;7.95;75.92;99284.84;4955100;28;20034;-67
2024/03/10 08:24:25;;;;;;;23.17;12.60;;;;;;;8.07;76.23;99299.91;4971934;28;20034;-68
2024/03/10 08:26:52;;;;;;;22.10;11.90;;;;;;;8.02;76.59;99300.44;4954424;28;20039;-68
2024/03/10 08:29:17;;;;;;;21.65;11.68;;;;;;;8.06;76.33;99298.31;4971810;28;20089;-68
2024/03/10 08:31:43;;;;;;;24.35;13.05;;;;;;;8.08;76.95;99301.50;4973332;28;20030;-68
2024/03/10 08:34:09;;;;;;;27.83;12.68;;;;;;;8.05;77.42;99299.28;4968861;28;20043;-68
2024/03/10 08:36:38;;;;;;;25.75;12.05;;;;;;;8.09;78.26;99295.38;4971999;28;20030;-68
2024/03/10 08:39:08;;;;;;;25.30;12.93;;;;;;;8.18;79.09;99299.50;4965402;28;20054;-68
2024/03/10 08:41:37;;;;;;;24.92;12.40;;;;;;;8.31;77.93;99285.97;4949038;28;20035;-68
2024/03/10 08:44:03;;;;;;;23.42;12.13;;;;;;;8.44;77.41;99290.50;4966199;28;20050;-68
2024/03/10 08:46:30;;;;;;;23.17;12.32;;;;;;;8.52;75.01;99304.16;4954229;28;20026;-68
2024/03/10 08:48:56;;;;;;;26.67;12.52;;;;;;;8.63;73.82;99295.16;4967521;28;20045;-68
2024/03/10 08:51:22;;;;;;;22.02;11.98;;;;;;;8.55;73.38;99280.56;4953628;28;20064;-68
2024/03/10 08:53:48;;;;;;;23.02;11.88;;;;;;;8.50;72.70;99274.31;4953473;28;20026;-68
2024/03/10 08:56:14;;;;;;;25.42;12.50;;;;;;;8.56;73.36;99269.22;4950486;28;20493;-68
2024/03/10 08:58:39;;;;;;;23.40;12.27;;;;;;;8.88;73.42;99279.34;4955666;28;20038;-68
2024/03/10 09:01:05;;;;;;;25.50;12.38;;;;;;;9.22;70.34;99268.38;4955925;28;20039;-68
2024/03/10 09:03:32;;;;;;;22.98;12.82;;;;;;;9.83;69.04;99269.66;4954509;28;20039;-68
2024/03/10 09:05:58;;;;;;;22.80;12.27;;;;;;;10.14;66.93;99257.13;4971851;28;20046;-68
2024/03/10 09:08:24;;;;;;;24.30;12.90;;;;;;;10.27;65.52;99260.81;4973339;28;20058;-68
2024/03/10 09:10:50;;;;;;;21.65;11.80;;;;;;;10.58;64.93;99259.56;4972728;28;20588;-68
2024/03/10 09:13:16;;;;;;;21.65;11.32;;;;;;;10.87;65.14;99259.28;4969952;28;20415;-68
2024/03/10 09:15:42;;;;;;;22.40;11.80;;;;;;;10.45;63.63;99255.94;4952495;28;20057;-68
2024/03/10 09:18:07;;;;;;;21.35;12.32;;;;;;;10.40;64.35;99258.31;4953790;28;20397;-68
2024/03/10 09:20:34;;;;;;;22.25;11.93;;;;;;;10.27;65.50;99245.25;4953466;28;20051;-68
2024/03/10 09:23:01;;;;;;;23.23;11.63;;;;;;;10.40;65.81;99245.34;4956480;28;20034;-69
2024/03/10 09:25:30;;;;;;;19.50;11.20;;;;;;;10.37;64.11;99240.53;4970952;28;20039;-68
2024/03/10 09:27:56;;;;;;;22.67;11.23;;;;;;;10.48;65.06;99221.06;4970823;28;20043;-68
2024/03/10 09:30:23;;;;;;;21.60;11.27;;;;;;;10.77;64.41;99195.81;4968593;28;20529;-68
2024/03/10 09:32:50;;;;;;;24.45;11.65;;;;;;;10.88;62.96;99205.63;4971872;28;20121;-68
2024/03/10 09:35:23;;;;;;;22.65;11.48;;;;;;;11.16;64.02;99207.28;4965044;28;20592;-68
2024/03/10 09:37:53;;;;;;;19.15;11.75;;;;;;;11.32;62.33;99191.31;4970415;28;20445;-68
2024/03/10 09:40:25;;;;;;;22.45;12.02;;;;;;;11.44;61.27;99184.50;4971882;28;20042;-68
2024/03/10 09:42:51;;;;;;;19.93;12.00;;;;;;;11.18;61.33;99189.72;4949788;28;20122;-68
2024/03/10 09:45:21;;;;;;;21.08;11.73;;;;;;;11.03;61.49;99192.47;4966753;28;20035;-68
2024/03/10 09:47:49;;;;;;;22.52;11.80;;;;;;;11.00;61.82;99192.88;4967251;28;20039;-68
2024/03/10 09:50:22;;;;;;;21.23;11.95;;;;;;;11.12;62.60;99206.06;4973234;28;20133;-68
2024/03/10 09:52:52;;;;;;;24.23;11.77;;;;;;;10.82;63.96;99217.56;4966850;28;20035;-68
2024/03/10 09:55:20;;;;;;;21.60;11.63;;;;;;;10.84;63.49;99219.97;4954766;28;20034;-68
2024/03/10 09:57:50;;;;;;;22.85;11.82;;;;;;;10.95;64.18;99219.41;4966392;28;20081;-68
2024/03/10 10:00:17;;;;;;;22.50;11.82;;;;;;;11.16;65.36;99228.81;4967544;28;20045;-68
2024/03/10 10:02:44;;;;;;;21.00;11.50;;;;;;;11.21;63.90;99226.44;4971442;28;20121;-68
2024/03/10 10:05:25;;;;;;;23.42;11.95;;;;;;;11.20;64.04;99226.63;4967188;28;20129;-68
2024/03/10 10:07:52;;;;;;;23.17;12.68;;;;;;;11.52;63.28;99237.22;4954680;28;20101;-68
2024/03/10 10:10:20;;;;;;;25.60;12.73;;;;;;;11.67;62.58;99241.19;4972240;28;20070;-68
2024/03/10 10:12:49;;;;;;;23.38;11.32;;;;;;;12.08;60.21;99242.00;4965904;28;20050;-68
2024/03/10 10:15:21;;;;;;;19.92;11.05;;;;;;;12.10;59.86;99237.38;4939136;28;20041;-68
2024/03/10 10:17:59;;;;;;;19.70;11.47;;;;;;;12.07;59.87;99238.59;4968833;28;20062;-68
2024/03/10 10:20:28;;;;;;;20.08;10.32;;;;;;;11.97;60.05;99230.41;4953356;28;20042;-68
2024/03/10 10:22:55;;;;;;;24.80;12.82;;;;;;;11.98;58.71;99226.00;4950496;28;20043;-68
2024/03/10 10:25:22;;;;;;;20.80;11.48;;;;;;;12.11;59.85;99223.41;4968008;28;20497;-68
2024/03/10 10:27:51;;;;;;;20.88;11.48;;;;;;;12.00;59.05;99214.44;4969540;28;20039;-68
2024/03/10 10:30:27;;;;;;;22.25;11.50;;;;;;;12.22;59.64;99203.75;4971195;28;20452;-68
2024/03/10 10:33:06;;;;;;;21.65;11.55;;;;;;;12.11;59.63;99202.63;4967622;28;20476;-68
2024/03/10 10:35:39;;;;;;;17.77;10.65;;;;;;;11.92;61.06;99200.84;4966794;28;20031;-68
2024/03/10 10:38:11;;;;;;;;;;;;;;;11.87;61.22;99194.44;4938117;28;20043;-68
2024/03/10 10:40:47;;;;;;;19.70;9.75;;;;;;;11.89;59.96;99196.84;4953456;28;19918;-68
2024/03/10 10:43:14;;;;;;;18.63;9.35;;;;;;;12.03;58.25;99203.63;4950997;28;20382;-68
2024/03/10 10:45:41;;;;;;;16.63;8.70;;;;;;;12.19;56.95;99207.59;4950722;28;20035;-68
2024/03/10 10:48:10;;;;;;;20.73;10.00;;;;;;;12.33;57.85;99207.53;4973347;28;20034;-68
2024/03/10 10:50:37;;;;;;;21.75;10.60;;;;;;;12.27;57.96;99206.56;4969759;28;20046;-68
2024/03/10 10:53:06;;;;;;;17.35;10.15;;;;;;;12.29;59.23;99196.75;4971154;28;20049;-68
2024/03/10 10:55:34;;;;;;;17.25;10.02;;;;;;;12.34;58.88;99204.75;4947296;28;20131;-68
2024/03/10 10:58:04;;;;;;;18.75;9.38;;;;;;;12.54;57.05;99199.44;4951993;28;20041;-68
2024/03/10 11:00:30;;;;;;;17.38;9.30;;;;;;;12.69;57.34;99191.34;4954513;28;20127;-68
2024/03/10 11:03:06;;;;;;;20.75;10.73;;;;;;;12.71;56.40;99197.16;4968002;28;20583;-68
2024/03/10 11:05:31;;;;;;;14.95;9.30;;;;;;;12.77;57.93;99198.94;4966613;28;20050;-68
2024/03/10 11:07:57;;;;;;;17.50;10.00;;;;;;;12.65;57.62;99200.59;4952243;28;20030;-68
2024/03/10 11:10:46;;;;;;;20.33;10.85;;;;;;;12.69;57.15;99206.16;4968822;28;20509;-68
2024/03/10 11:13:13;;;;;;;16.52;9.57;;;;;;;12.70;56.60;99205.97;4953843;28;20030;-68
2024/03/10 11:15:40;;;;;;;16.90;9.18;;;;;;;12.81;56.99;99209.72;4951202;28;20034;-68
2024/03/10 11:18:25;;;;;;;21.25;10.65;;;;;;;12.96;56.40;99210.22;4965851;28;20035;-68
2024/03/10 11:20:53;;;;;;;18.15;10.95;;;;;;;12.98;56.78;99204.81;4968679;28;20042;-68
2024/03/10 11:23:36;;;;;;;18.85;10.60;;;;;;;13.03;56.34;99213.59;4967855;28;20629;-68
2024/03/10 11:26:06;;;;;;;20.23;11.45;;;;;;;12.96;56.59;99212.81;4966421;28;20051;-68
2024/03/10 11:28:52;;;;;;;18.25;10.52;;;;;;;13.00;56.61;99208.78;4967636;28;20038;-68
2024/03/10 11:31:26;;;;;;;19.52;10.68;;;;;;;13.07;55.56;99197.53;4985476;28;20042;-68
2024/03/10 11:33:58;;;;;;;19.80;10.88;;;;;;;13.07;56.55;99187.13;4988252;28;20037;-69
2024/03/10 11:36:25;;;;;;;;;;;;;;;13.23;57.44;99187.41;4970386;28;20044;-68
2024/03/10 11:38:54;;;;;;;17.02;10.38;;;;;;;13.42;56.42;99192.69;4972376;28;20287;-68
2024/03/10 11:41:22;;;;;;;17.10;10.27;;;;;;;13.58;55.94;99193.94;4973492;28;20077;-68
2024/03/10 11:43:48;;;;;;;18.55;10.45;;;;;;;13.71;55.01;99173.00;4985186;28;20044;-69
2024/03/10 11:46:22;;;;;;;16.40;9.90;;;;;;;13.84;53.30;99177.28;4985298;28;20045;-68
2024/03/10 11:48:52;;;;;;;17.25;11.18;;;;;;;13.58;54.51;99181.75;4984366;28;20492;-69
2024/03/10 11:51:20;;;;;;;19.45;10.57;;;;;;;13.47;54.23;99181.63;4970946;28;20507;-68